sensor_id;sensor_type;location;lat;lon;timestamp;pressure;altitude;pressure_sealevel;temperature;humidity
65329;BME280;51941;52.210;5.158;2024-02-26T00:01:58;100020.59;;;4.78;77.26
65329;BME280;51941;52.210;5.158;2024-02-26T00:04:26;100015.97;;;4.75;77.40
65329;BME280;51941;52.210;5.158;2024-02-26T00:06:53;100014.81;;;4.76;77.41
65329;BME280;51941;52.210;5.158;2024-02-26T00:09:20;100016.22;;;4.70;77.68
65329;BME280;51941;52.210;5.158;2024-02-26T00:11:46;100018.13;;;4.69;77.61
65329;BME280;51941;52.210;5.158;2024-02-26T00:14:13;100016.56;;;4.68;77.69
65329;BME280;51941;52.210;5.158;2024-02-26T00:16:40;100022.78;;;4.56;78.17
65329;BME280;51941;52.210;5.158;2024-02-26T00:19:07;100023.03;;;4.67;77.88
65329;BME280;51941;52.210;5.158;2024-02-26T00:21:35;100028.03;;;4.69;77.90
65329;BME280;51941;52.210;5.158;2024-02-26T00:24:02;100021.59;;;4.54;78.41
65329;BME280;51941;52.210;5.158;2024-02-26T00:26:28;100024.53;;;4.65;78.04
65329;BME280;51941;52.210;5.158;2024-02-26T00:28:55;100027.88;;;4.62;78.10
65329;BME280;51941;52.210;5.158;2024-02-26T00:31:22;100023.50;;;4.53;78.37
65329;BME280;51941;52.210;5.158;2024-02-26T00:33:48;100022.88;;;4.60;78.18
65329;BME280;51941;52.210;5.158;2024-02-26T00:36:15;100028.06;;;4.53;78.09
65329;BME280;51941;52.210;5.158;2024-02-26T00:38:43;100024.91;;;4.47;78.55
65329;BME280;51941;52.210;5.158;2024-02-26T00:41:11;100032.28;;;4.54;77.79
65329;BME280;51941;52.210;5.158;2024-02-26T00:43:38;100027.56;;;4.47;78.07
65329;BME280;51941;52.210;5.158;2024-02-26T00:46:05;100033.41;;;4.53;77.94
65329;BME280;51941;52.210;5.158;2024-02-26T00:48:32;100037.59;;;4.54;77.93
65329;BME280;51941;52.210;5.158;2024-02-26T00:50:58;100037.19;;;4.52;77.89
65329;BME280;51941;52.210;5.158;2024-02-26T00:53:25;100033.75;;;4.51;77.77
65329;BME280;51941;52.210;5.158;2024-02-26T00:55:53;100030.84;;;4.41;78.06
65329;BME280;51941;52.210;5.158;2024-02-26T00:58:20;100030.59;;;4.46;77.97
65329;BME280;51941;52.210;5.158;2024-02-26T01:00:46;100025.16;;;4.42;77.87
65329;BME280;51941;52.210;5.158;2024-02-26T01:03:13;100026.31;;;4.41;77.87
65329;BME280;51941;52.210;5.158;2024-02-26T01:05:40;100034.34;;;4.45;77.83
65329;BME280;51941;52.210;5.158;2024-02-26T01:08:07;100033.25;;;4.46;77.65
65329;BME280;51941;52.210;5.158;2024-02-26T01:10:33;100039.69;;;4.45;77.64
65329;BME280;51941;52.210;5.158;2024-02-26T01:13:02;100034.91;;;4.34;77.94
65329;BME280;51941;52.210;5.158;2024-02-26T01:15:29;100036.88;;;4.38;77.86
65329;BME280;51941;52.210;5.158;2024-02-26T01:17:55;100028.53;;;4.39;77.88
65329;BME280;51941;52.210;5.158;2024-02-26T01:20:22;100035.75;;;4.39;77.75
65329;BME280;51941;52.210;5.158;2024-02-26T01:22:49;100034.22;;;4.38;77.62
65329;BME280;51941;52.210;5.158;2024-02-26T01:25:15;100044.09;;;4.37;77.78
65329;BME280;51941;52.210;5.158;2024-02-26T01:27:43;100046.28;;;4.31;78.15
65329;BME280;51941;52.210;5.158;2024-02-26T01:30:12;100042.81;;;4.31;78.31
65329;BME280;51941;52.210;5.158;2024-02-26T01:32:41;100042.81;;;4.15;79.54
65329;BME280;51941;52.210;5.158;2024-02-26T01:35:08;100033.97;;;4.27;78.62
65329;BME280;51941;52.210;5.158;2024-02-26T01:37:37;100040.09;;;4.27;78.54
65329;BME280;51941;52.210;5.158;2024-02-26T01:40:04;100045.75;;;4.26;78.41
65329;BME280;51941;52.210;5.158;2024-02-26T01:42:32;100037.34;;;4.24;78.52
65329;BME280;51941;52.210;5.158;2024-02-26T01:44:59;100040.00;;;4.08;79.17
65329;BME280;51941;52.210;5.158;2024-02-26T01:47:27;100042.66;;;4.24;78.62
65329;BME280;51941;52.210;5.158;2024-02-26T01:49:54;100039.28;;;4.27;78.39
65329;BME280;51941;52.210;5.158;2024-02-26T01:52:21;100034.66;;;4.24;78.41
65329;BME280;51941;52.210;5.158;2024-02-26T01:54:48;100035.44;;;4.24;78.51
65329;BME280;51941;52.210;5.158;2024-02-26T01:57:16;100043.09;;;4.26;78.35
65329;BME280;51941;52.210;5.158;2024-02-26T01:59:43;100038.19;;;4.28;78.21
65329;BME280;51941;52.210;5.158;2024-02-26T02:02:10;100040.75;;;4.24;78.20
65329;BME280;51941;52.210;5.158;2024-02-26T02:04:39;100044.47;;;4.20;78.39
65329;BME280;51941;52.210;5.158;2024-02-26T02:07:06;100038.28;;;4.15;78.43
65329;BME280;51941;52.210;5.158;2024-02-26T02:09:33;100042.66;;;4.24;78.20
65329;BME280;51941;52.210;5.158;2024-02-26T02:12:00;100048.00;;;4.24;78.12
65329;BME280;51941;52.210;5.158;2024-02-26T02:14:27;100044.28;;;4.28;77.86
65329;BME280;51941;52.210;5.158;2024-02-26T02:16:53;100051.50;;;4.28;77.68
65329;BME280;51941;52.210;5.158;2024-02-26T02:19:20;100060.28;;;4.28;77.75
65329;BME280;51941;52.210;5.158;2024-02-26T02:21:48;100058.75;;;4.27;77.83
65329;BME280;51941;52.210;5.158;2024-02-26T02:24:15;100061.91;;;4.17;78.15
65329;BME280;51941;52.210;5.158;2024-02-26T02:26:42;100057.81;;;4.20;78.10
65329;BME280;51941;52.210;5.158;2024-02-26T02:29:09;100051.50;;;4.28;77.60
65329;BME280;51941;52.210;5.158;2024-02-26T02:31:36;100055.72;;;4.29;77.66
65329;BME280;51941;52.210;5.158;2024-02-26T02:34:03;100067.94;;;4.30;77.67
65329;BME280;51941;52.210;5.158;2024-02-26T02:36:29;100069.75;;;4.26;77.58
65329;BME280;51941;52.210;5.158;2024-02-26T02:38:57;100066.56;;;4.20;77.74
65329;BME280;51941;52.210;5.158;2024-02-26T02:41:24;100068.28;;;4.28;77.31
65329;BME280;51941;52.210;5.158;2024-02-26T02:43:51;100068.63;;;4.27;77.44
65329;BME280;51941;52.210;5.158;2024-02-26T02:46:18;100068.03;;;4.33;77.16
65329;BME280;51941;52.210;5.158;2024-02-26T02:48:45;100069.97;;;4.36;77.18
65329;BME280;51941;52.210;5.158;2024-02-26T02:51:12;100069.13;;;4.32;76.93
65329;BME280;51941;52.210;5.158;2024-02-26T02:53:38;100071.78;;;4.32;77.13
65329;BME280;51941;52.210;5.158;2024-02-26T02:56:07;100070.75;;;4.37;76.79
65329;BME280;51941;52.210;5.158;2024-02-26T02:58:33;100074.78;;;4.31;76.69
65329;BME280;51941;52.210;5.158;2024-02-26T03:01:00;100072.66;;;4.36;76.80
65329;BME280;51941;52.210;5.158;2024-02-26T03:03:27;100086.06;;;4.40;76.43
65329;BME280;51941;52.210;5.158;2024-02-26T03:05:54;100083.81;;;4.42;76.21
65329;BME280;51941;52.210;5.158;2024-02-26T03:08:21;100095.63;;;4.41;76.29
65329;BME280;51941;52.210;5.158;2024-02-26T03:10:49;100099.47;;;4.44;76.16
65329;BME280;51941;52.210;5.158;2024-02-26T03:13:17;100103.88;;;4.36;76.28
65329;BME280;51941;52.210;5.158;2024-02-26T03:15:44;100109.81;;;4.45;76.09
65329;BME280;51941;52.210;5.158;2024-02-26T03:18:10;100111.19;;;4.39;76.38
65329;BME280;51941;52.210;5.158;2024-02-26T03:20:37;100111.63;;;4.41;76.49
65329;BME280;51941;52.210;5.158;2024-02-26T03:23:04;100113.69;;;4.32;76.78
65329;BME280;51941;52.210;5.158;2024-02-26T03:25:30;100114.19;;;4.38;76.66
65329;BME280;51941;52.210;5.158;2024-02-26T03:27:57;100119.63;;;4.41;76.16
65329;BME280;51941;52.210;5.158;2024-02-26T03:30:25;100108.50;;;4.23;77.19
65329;BME280;51941;52.210;5.158;2024-02-26T03:32:52;100115.06;;;4.42;76.55
65329;BME280;51941;52.210;5.158;2024-02-26T03:35:19;100124.00;;;4.33;76.39
65329;BME280;51941;52.210;5.158;2024-02-26T03:37:46;100123.38;;;4.40;76.56
65329;BME280;51941;52.210;5.158;2024-02-26T03:40:13;100121.41;;;4.37;76.72
65329;BME280;51941;52.210;5.158;2024-02-26T03:42:40;100120.03;;;4.43;76.35
65329;BME280;51941;52.210;5.158;2024-02-26T03:45:07;100119.63;;;4.41;76.47
65329;BME280;51941;52.210;5.158;2024-02-26T03:47:37;100122.19;;;4.38;76.29
65329;BME280;51941;52.210;5.158;2024-02-26T03:50:06;100131.38;;;4.40;76.46
65329;BME280;51941;52.210;5.158;2024-02-26T03:52:33;100137.91;;;4.43;76.41
65329;BME280;51941;52.210;5.158;2024-02-26T03:55:00;100142.38;;;4.39;76.51
65329;BME280;51941;52.210;5.158;2024-02-26T03:57:26;100138.09;;;4.34;77.00
65329;BME280;51941;52.210;5.158;2024-02-26T03:59:53;100143.25;;;4.43;76.62
65329;BME280;51941;52.210;5.158;2024-02-26T04:02:20;100148.84;;;4.38;76.83
65329;BME280;51941;52.210;5.158;2024-02-26T04:04:49;100157.38;;;4.43;76.56
65329;BME280;51941;52.210;5.158;2024-02-26T04:07:16;100153.38;;;4.37;76.80
65329;BME280;51941;52.210;5.158;2024-02-26T04:09:44;100154.75;;;4.47;76.41
65329;BME280;51941;52.210;5.158;2024-02-26T04:12:10;100156.00;;;4.49;76.35
65329;BME280;51941;52.210;5.158;2024-02-26T04:14:37;100156.00;;;4.49;76.20
65329;BME280;51941;52.210;5.158;2024-02-26T04:17:04;100156.50;;;4.39;76.23
65329;BME280;51941;52.210;5.158;2024-02-26T04:19:31;100162.09;;;4.18;77.48
65329;BME280;51941;52.210;5.158;2024-02-26T04:21:59;100170.34;;;4.29;77.05
65329;BME280;51941;52.210;5.158;2024-02-26T04:24:27;100157.72;;;4.42;76.55
65329;BME280;51941;52.210;5.158;2024-02-26T04:26:54;100169.06;;;4.39;76.63
65329;BME280;51941;52.210;5.158;2024-02-26T04:29:21;100172.25;;;4.44;76.50
65329;BME280;51941;52.210;5.158;2024-02-26T04:31:47;100172.47;;;4.23;77.47
65329;BME280;51941;52.210;5.158;2024-02-26T04:34:14;100183.22;;;4.27;77.34
65329;BME280;51941;52.210;5.158;2024-02-26T04:36:41;100174.88;;;4.12;77.83
65329;BME280;51941;52.210;5.158;2024-02-26T04:39:12;100179.28;;;4.36;76.93
65329;BME280;51941;52.210;5.158;2024-02-26T04:41:38;100187.19;;;4.33;76.83
65329;BME280;51941;52.210;5.158;2024-02-26T04:44:05;100189.00;;;4.29;77.09
65329;BME280;51941;52.210;5.158;2024-02-26T04:46:32;100187.13;;;4.29;77.00
65329;BME280;51941;52.210;5.158;2024-02-26T04:48:58;100192.34;;;4.26;77.10
65329;BME280;51941;52.210;5.158;2024-02-26T04:51:25;100195.03;;;4.26;77.23
65329;BME280;51941;52.210;5.158;2024-02-26T04:53:52;100187.88;;;4.30;77.20
65329;BME280;51941;52.210;5.158;2024-02-26T04:56:21;100187.69;;;4.23;77.61
65329;BME280;51941;52.210;5.158;2024-02-26T04:58:48;100183.94;;;4.24;77.43
65329;BME280;51941;52.210;5.158;2024-02-26T05:01:15;100190.69;;;4.21;77.60
65329;BME280;51941;52.210;5.158;2024-02-26T05:03:42;100179.59;;;4.19;77.57
65329;BME280;51941;52.210;5.158;2024-02-26T05:06:09;100189.94;;;4.21;77.47
65329;BME280;51941;52.210;5.158;2024-02-26T05:08:36;100190.69;;;4.21;77.59
65329;BME280;51941;52.210;5.158;2024-02-26T05:11:04;100195.78;;;4.10;78.02
65329;BME280;51941;52.210;5.158;2024-02-26T05:13:32;100183.41;;;4.18;77.72
65329;BME280;51941;52.210;5.158;2024-02-26T05:15:59;100195.16;;;4.17;77.99
65329;BME280;51941;52.210;5.158;2024-02-26T05:18:25;100199.72;;;4.16;77.90
65329;BME280;51941;52.210;5.158;2024-02-26T05:20:52;100204.41;;;4.20;77.98
65329;BME280;51941;52.210;5.158;2024-02-26T05:23:19;100203.53;;;4.15;77.84
65329;BME280;51941;52.210;5.158;2024-02-26T05:25:45;100207.19;;;4.11;78.25
65329;BME280;51941;52.210;5.158;2024-02-26T05:28:13;100210.41;;;4.16;77.97
65329;BME280;51941;52.210;5.158;2024-02-26T05:30:42;100216.84;;;4.15;78.00
65329;BME280;51941;52.210;5.158;2024-02-26T05:33:09;100234.38;;;4.16;78.10
65329;BME280;51941;52.210;5.158;2024-02-26T05:35:36;100222.94;;;4.16;78.31
65329;BME280;51941;52.210;5.158;2024-02-26T05:38:03;100218.19;;;4.09;78.59
65329;BME280;51941;52.210;5.158;2024-02-26T05:40:30;100215.06;;;3.91;79.10
65329;BME280;51941;52.210;5.158;2024-02-26T05:42:57;100216.84;;;4.15;78.61
65329;BME280;51941;52.210;5.158;2024-02-26T05:45:25;100221.16;;;4.20;78.27
65329;BME280;51941;52.210;5.158;2024-02-26T05:47:53;100219.75;;;4.10;78.86
65329;BME280;51941;52.210;5.158;2024-02-26T05:50:19;100219.00;;;4.10;79.03
65329;BME280;51941;52.210;5.158;2024-02-26T05:52:46;100224.16;;;4.19;78.56
65329;BME280;51941;52.210;5.158;2024-02-26T05:55:13;100232.56;;;4.21;78.54
65329;BME280;51941;52.210;5.158;2024-02-26T05:57:40;100226.59;;;4.24;78.56
65329;BME280;51941;52.210;5.158;2024-02-26T06:00:08;100235.69;;;4.23;78.67
65329;BME280;51941;52.210;5.158;2024-02-26T06:02:38;100238.25;;;4.19;78.83
65329;BME280;51941;52.210;5.158;2024-02-26T06:05:06;100234.25;;;4.25;78.42
65329;BME280;51941;52.210;5.158;2024-02-26T06:07:34;100246.00;;;4.24;78.43
65329;BME280;51941;52.210;5.158;2024-02-26T06:10:01;100247.31;;;4.30;78.19
65329;BME280;51941;52.210;5.158;2024-02-26T06:12:30;100261.41;;;4.31;78.44
65329;BME280;51941;52.210;5.158;2024-02-26T06:14:56;100255.38;;;4.18;78.95
65329;BME280;51941;52.210;5.158;2024-02-26T06:17:26;100262.97;;;4.32;78.38
65329;BME280;51941;52.210;5.158;2024-02-26T06:19:54;100275.75;;;4.26;78.74
65329;BME280;51941;52.210;5.158;2024-02-26T06:22:22;100267.88;;;4.30;78.45
65329;BME280;51941;52.210;5.158;2024-02-26T06:24:48;100281.25;;;4.18;79.09
65329;BME280;51941;52.210;5.158;2024-02-26T06:27:15;100269.22;;;4.24;78.73
65329;BME280;51941;52.210;5.158;2024-02-26T06:29:42;100281.09;;;4.26;78.67
65329;BME280;51941;52.210;5.158;2024-02-26T06:32:08;100279.47;;;4.22;79.04
65329;BME280;51941;52.210;5.158;2024-02-26T06:34:35;100284.78;;;4.22;78.93
65329;BME280;51941;52.210;5.158;2024-02-26T06:37:03;100288.75;;;4.28;78.75
65329;BME280;51941;52.210;5.158;2024-02-26T06:39:31;100287.09;;;4.23;78.99
65329;BME280;51941;52.210;5.158;2024-02-26T06:41:58;100278.75;;;4.25;78.98
65329;BME280;51941;52.210;5.158;2024-02-26T06:44:26;100289.69;;;4.20;79.26
65329;BME280;51941;52.210;5.158;2024-02-26T06:46:57;100298.44;;;4.20;79.22
65329;BME280;51941;52.210;5.158;2024-02-26T06:49:23;100297.41;;;4.25;79.01
65329;BME280;51941;52.210;5.158;2024-02-26T06:51:50;100300.41;;;4.23;79.05
65329;BME280;51941;52.210;5.158;2024-02-26T06:54:17;100303.81;;;4.08;79.58
65329;BME280;51941;52.210;5.158;2024-02-26T06:56:45;100310.22;;;4.19;79.39
65329;BME280;51941;52.210;5.158;2024-02-26T06:59:12;100308.91;;;4.13;79.72
65329;BME280;51941;52.210;5.158;2024-02-26T07:01:40;100319.13;;;4.11;79.99
65329;BME280;51941;52.210;5.158;2024-02-26T07:04:06;100325.69;;;4.13;79.47
65329;BME280;51941;52.210;5.158;2024-02-26T07:06:33;100322.34;;;4.16;79.32
65329;BME280;51941;52.210;5.158;2024-02-26T07:09:00;100332.34;;;4.20;79.53
65329;BME280;51941;52.210;5.158;2024-02-26T07:11:26;100330.31;;;4.16;79.70
65329;BME280;51941;52.210;5.158;2024-02-26T07:13:54;100333.00;;;4.16;79.69
65329;BME280;51941;52.210;5.158;2024-02-26T07:16:21;100332.13;;;4.12;80.13
65329;BME280;51941;52.210;5.158;2024-02-26T07:18:48;100341.31;;;4.15;79.87
65329;BME280;51941;52.210;5.158;2024-02-26T07:21:15;100358.66;;;4.09;80.12
65329;BME280;51941;52.210;5.158;2024-02-26T07:23:41;100354.34;;;4.04;80.33
65329;BME280;51941;52.210;5.158;2024-02-26T07:26:08;100351.25;;;4.02;80.54
65329;BME280;51941;52.210;5.158;2024-02-26T07:28:37;100360.88;;;4.07;79.89
65329;BME280;51941;52.210;5.158;2024-02-26T07:31:05;100359.78;;;4.08;79.98
65329;BME280;51941;52.210;5.158;2024-02-26T07:33:31;100363.56;;;4.07;80.03
65329;BME280;51941;52.210;5.158;2024-02-26T07:36:00;100364.31;;;4.07;79.85
65329;BME280;51941;52.210;5.158;2024-02-26T07:38:27;100366.47;;;4.02;80.06
65329;BME280;51941;52.210;5.158;2024-02-26T07:40:54;100366.00;;;4.00;80.28
65329;BME280;51941;52.210;5.158;2024-02-26T07:43:22;100371.16;;;3.92;80.52
65329;BME280;51941;52.210;5.158;2024-02-26T07:45:48;100370.91;;;3.85;80.39
65329;BME280;51941;52.210;5.158;2024-02-26T07:48:16;100375.56;;;4.01;79.83
65329;BME280;51941;52.210;5.158;2024-02-26T07:50:43;100377.69;;;3.95;80.19
65329;BME280;51941;52.210;5.158;2024-02-26T07:53:10;100382.91;;;4.04;79.84
65329;BME280;51941;52.210;5.158;2024-02-26T07:55:37;100386.56;;;3.87;80.56
65329;BME280;51941;52.210;5.158;2024-02-26T07:58:04;100380.13;;;4.00;79.87
65329;BME280;51941;52.210;5.158;2024-02-26T08:00:30;100389.22;;;3.99;79.92
65329;BME280;51941;52.210;5.158;2024-02-26T08:02:57;100395.97;;;4.09;79.57
65329;BME280;51941;52.210;5.158;2024-02-26T08:05:25;100398.78;;;3.88;80.32
65329;BME280;51941;52.210;5.158;2024-02-26T08:07:52;100413.97;;;4.12;79.29
65329;BME280;51941;52.210;5.158;2024-02-26T08:10:20;100412.97;;;4.04;79.81
65329;BME280;51941;52.210;5.158;2024-02-26T08:12:47;100410.88;;;4.10;79.39
65329;BME280;51941;52.210;5.158;2024-02-26T08:15:14;100415.31;;;4.06;79.65
65329;BME280;51941;52.210;5.158;2024-02-26T08:17:40;100421.63;;;4.01;79.58
65329;BME280;51941;52.210;5.158;2024-02-26T08:20:09;100411.84;;;4.18;79.08
65329;BME280;51941;52.210;5.158;2024-02-26T08:22:37;100426.75;;;4.06;79.10
65329;BME280;51941;52.210;5.158;2024-02-26T08:25:05;100412.06;;;4.12;78.89
65329;BME280;51941;52.210;5.158;2024-02-26T08:27:34;100428.19;;;4.16;78.79
65329;BME280;51941;52.210;5.158;2024-02-26T08:30:01;100439.84;;;3.99;79.55
65329;BME280;51941;52.210;5.158;2024-02-26T08:32:28;100449.72;;;4.11;78.45
65329;BME280;51941;52.210;5.158;2024-02-26T08:34:54;100432.38;;;4.17;78.60
65329;BME280;51941;52.210;5.158;2024-02-26T08:37:21;100420.06;;;4.12;78.66
65329;BME280;51941;52.210;5.158;2024-02-26T08:39:49;100438.16;;;4.19;78.50
65329;BME280;51941;52.210;5.158;2024-02-26T08:42:16;100440.03;;;4.19;78.18
65329;BME280;51941;52.210;5.158;2024-02-26T08:44:42;100443.03;;;4.17;78.07
65329;BME280;51941;52.210;5.158;2024-02-26T08:47:09;100448.06;;;4.06;78.79
65329;BME280;51941;52.210;5.158;2024-02-26T08:49:36;100448.38;;;4.17;78.25
65329;BME280;51941;52.210;5.158;2024-02-26T08:52:04;100456.38;;;4.17;78.16
65329;BME280;51941;52.210;5.158;2024-02-26T08:54:31;100455.81;;;4.24;78.16
65329;BME280;51941;52.210;5.158;2024-02-26T08:56:59;100455.38;;;4.22;78.15
65329;BME280;51941;52.210;5.158;2024-02-26T08:59:26;100465.69;;;4.35;77.78
65329;BME280;51941;52.210;5.158;2024-02-26T09:01:53;100462.22;;;4.35;77.47
65329;BME280;51941;52.210;5.158;2024-02-26T09:04:20;100470.22;;;4.35;77.36
65329;BME280;51941;52.210;5.158;2024-02-26T09:06:47;100469.47;;;4.22;77.97
65329;BME280;51941;52.210;5.158;2024-02-26T09:09:14;100471.38;;;4.22;78.04
65329;BME280;51941;52.210;5.158;2024-02-26T09:11:41;100479.38;;;4.22;77.96
65329;BME280;51941;52.210;5.158;2024-02-26T09:14:09;100497.91;;;4.30;77.39
65329;BME280;51941;52.210;5.158;2024-02-26T09:16:35;100471.56;;;4.41;77.27
65329;BME280;51941;52.210;5.158;2024-02-26T09:19:02;100495.56;;;4.29;77.25
65329;BME280;51941;52.210;5.158;2024-02-26T09:21:29;100493.34;;;4.43;77.36
65329;BME280;51941;52.210;5.158;2024-02-26T09:23:56;100500.22;;;4.44;76.43
65329;BME280;51941;52.210;5.158;2024-02-26T09:26:22;100497.31;;;4.49;76.83
65329;BME280;51941;52.210;5.158;2024-02-26T09:28:49;100522.75;;;4.47;76.63
65329;BME280;51941;52.210;5.158;2024-02-26T09:31:18;100514.88;;;4.38;76.69
65329;BME280;51941;52.210;5.158;2024-02-26T09:33:45;100506.75;;;4.47;76.46
65329;BME280;51941;52.210;5.158;2024-02-26T09:36:12;100516.00;;;4.49;76.38
65329;BME280;51941;52.210;5.158;2024-02-26T09:38:39;100523.00;;;4.42;76.55
65329;BME280;51941;52.210;5.158;2024-02-26T09:41:06;100516.69;;;4.34;77.06
65329;BME280;51941;52.210;5.158;2024-02-26T09:43:35;100540.53;;;4.43;76.94
65329;BME280;51941;52.210;5.158;2024-02-26T09:46:03;100529.53;;;4.44;76.77
65329;BME280;51941;52.210;5.158;2024-02-26T09:48:34;100527.66;;;4.45;76.99
65329;BME280;51941;52.210;5.158;2024-02-26T09:51:02;100533.41;;;4.47;77.17
65329;BME280;51941;52.210;5.158;2024-02-26T09:53:29;100540.66;;;4.34;77.78
65329;BME280;51941;52.210;5.158;2024-02-26T09:55:57;100539.00;;;4.29;78.43
65329;BME280;51941;52.210;5.158;2024-02-26T09:58:27;100548.44;;;4.39;78.26
65329;BME280;51941;52.210;5.158;2024-02-26T10:00:56;100544.44;;;4.45;78.25
65329;BME280;51941;52.210;5.158;2024-02-26T10:03:27;100551.91;;;4.40;78.41
65329;BME280;51941;52.210;5.158;2024-02-26T10:05:56;100556.91;;;4.41;78.63
65329;BME280;51941;52.210;5.158;2024-02-26T10:08:24;100565.56;;;4.38;78.75
65329;BME280;51941;52.210;5.158;2024-02-26T10:10:51;100572.88;;;4.04;79.83
65329;BME280;51941;52.210;5.158;2024-02-26T10:13:19;100579.09;;;4.33;79.22
65329;BME280;51941;52.210;5.158;2024-02-26T10:15:46;100573.75;;;4.33;78.89
65329;BME280;51941;52.210;5.158;2024-02-26T10:18:12;100582.88;;;4.32;79.05
65329;BME280;51941;52.210;5.158;2024-02-26T10:20:39;100578.31;;;4.20;79.65
65329;BME280;51941;52.210;5.158;2024-02-26T10:23:07;100582.66;;;4.25;79.94
65329;BME280;51941;52.210;5.158;2024-02-26T10:25:34;100588.53;;;4.18;79.69
65329;BME280;51941;52.210;5.158;2024-02-26T10:28:01;100586.44;;;4.24;79.71
65329;BME280;51941;52.210;5.158;2024-02-26T10:30:28;100593.63;;;4.11;80.70
65329;BME280;51941;52.210;5.158;2024-02-26T10:32:56;100611.63;;;4.14;80.72
65329;BME280;51941;52.210;5.158;2024-02-26T10:35:22;100600.41;;;4.21;80.61
65329;BME280;51941;52.210;5.158;2024-02-26T10:37:50;100607.28;;;4.09;80.76
65329;BME280;51941;52.210;5.158;2024-02-26T10:40:21;100615.84;;;4.15;81.07
65329;BME280;51941;52.210;5.158;2024-02-26T10:42:47;100614.63;;;4.12;80.86
65329;BME280;51941;52.210;5.158;2024-02-26T10:45:14;100605.06;;;4.11;81.07
65329;BME280;51941;52.210;5.158;2024-02-26T10:47:41;100609.50;;;4.07;81.29
65329;BME280;51941;52.210;5.158;2024-02-26T10:50:08;100614.38;;;4.05;81.56
65329;BME280;51941;52.210;5.158;2024-02-26T10:52:36;100627.06;;;4.08;81.67
65329;BME280;51941;52.210;5.158;2024-02-26T10:55:05;100627.72;;;4.05;81.70
65329;BME280;51941;52.210;5.158;2024-02-26T10:57:35;100636.59;;;3.97;83.20
65329;BME280;51941;52.210;5.158;2024-02-26T11:00:04;100637.53;;;4.13;81.72
65329;BME280;51941;52.210;5.158;2024-02-26T11:02:32;100643.50;;;4.10;81.68
65329;BME280;51941;52.210;5.158;2024-02-26T11:05:02;100637.97;;;4.15;81.83
65329;BME280;51941;52.210;5.158;2024-02-26T11:07:29;100647.97;;;4.19;82.40
65329;BME280;51941;52.210;5.158;2024-02-26T11:09:57;100662.16;;;4.10;82.22
65329;BME280;51941;52.210;5.158;2024-02-26T11:12:25;100663.38;;;4.13;81.62
65329;BME280;51941;52.210;5.158;2024-02-26T11:14:55;100657.63;;;4.23;81.83
65329;BME280;51941;52.210;5.158;2024-02-26T11:17:26;100663.31;;;4.34;81.95
65329;BME280;51941;52.210;5.158;2024-02-26T11:19:55;100667.66;;;4.39;81.73
65329;BME280;51941;52.210;5.158;2024-02-26T11:22:23;100675.53;;;4.35;81.59
65329;BME280;51941;52.210;5.158;2024-02-26T11:24:51;100672.22;;;4.38;81.44
65329;BME280;51941;52.210;5.158;2024-02-26T11:27:23;100668.78;;;4.38;81.31
65329;BME280;51941;52.210;5.158;2024-02-26T11:29:54;100687.00;;;4.48;81.35
65329;BME280;51941;52.210;5.158;2024-02-26T11:32:23;100677.44;;;4.47;81.37
65329;BME280;51941;52.210;5.158;2024-02-26T11:34:51;100680.53;;;4.49;81.19
65329;BME280;51941;52.210;5.158;2024-02-26T11:37:20;100684.53;;;4.43;80.08
65329;BME280;51941;52.210;5.158;2024-02-26T11:39:47;100686.00;;;4.40;80.53
65329;BME280;51941;52.210;5.158;2024-02-26T11:42:14;100686.75;;;4.41;80.48
65329;BME280;51941;52.210;5.158;2024-02-26T11:44:41;100684.44;;;4.51;80.15
65329;BME280;51941;52.210;5.158;2024-02-26T11:47:13;100687.69;;;4.57;80.44
65329;BME280;51941;52.210;5.158;2024-02-26T11:49:40;100689.66;;;4.60;79.70
65329;BME280;51941;52.210;5.158;2024-02-26T11:52:08;100688.78;;;4.68;79.94
65329;BME280;51941;52.210;5.158;2024-02-26T11:54:45;100709.03;;;4.69;79.01
65329;BME280;51941;52.210;5.158;2024-02-26T11:57:26;100689.66;;;4.72;79.10
65329;BME280;51941;52.210;5.158;2024-02-26T11:59:54;100704.47;;;4.70;78.60
65329;BME280;51941;52.210;5.158;2024-02-26T12:02:43;100697.78;;;4.76;78.97
65329;BME280;51941;52.210;5.158;2024-02-26T12:05:11;100694.03;;;4.77;78.44
65329;BME280;51941;52.210;5.158;2024-02-26T12:07:40;100714.16;;;4.87;78.19
65329;BME280;51941;52.210;5.158;2024-02-26T12:10:15;100704.16;;;4.96;78.49
65329;BME280;51941;52.210;5.158;2024-02-26T12:12:42;100713.91;;;4.92;77.84
65329;BME280;51941;52.210;5.158;2024-02-26T12:15:09;100709.50;;;4.96;77.32
65329;BME280;51941;52.210;5.158;2024-02-26T12:17:37;100708.56;;;4.92;77.46
65329;BME280;51941;52.210;5.158;2024-02-26T12:20:13;100726.94;;;4.93;76.44
65329;BME280;51941;52.210;5.158;2024-02-26T12:22:40;100725.75;;;5.03;76.76
65329;BME280;51941;52.210;5.158;2024-02-26T12:25:09;100705.94;;;5.04;76.44
65329;BME280;51941;52.210;5.158;2024-02-26T12:27:36;100729.28;;;5.07;76.60
65329;BME280;51941;52.210;5.158;2024-02-26T12:30:03;100721.50;;;5.14;76.26
65329;BME280;51941;52.210;5.158;2024-02-26T12:32:30;100735.63;;;5.15;75.92
65329;BME280;51941;52.210;5.158;2024-02-26T12:34:57;100727.16;;;5.25;75.71
65329;BME280;51941;52.210;5.158;2024-02-26T12:37:25;100728.72;;;5.26;75.80
65329;BME280;51941;52.210;5.158;2024-02-26T12:39:52;100738.97;;;5.24;75.36
65329;BME280;51941;52.210;5.158;2024-02-26T12:42:18;100733.81;;;5.31;75.12
65329;BME280;51941;52.210;5.158;2024-02-26T12:44:46;100738.84;;;5.33;75.09
65329;BME280;51941;52.210;5.158;2024-02-26T12:47:13;100745.88;;;5.38;75.10
65329;BME280;51941;52.210;5.158;2024-02-26T12:49:42;100757.75;;;5.40;74.40
65329;BME280;51941;52.210;5.158;2024-02-26T12:52:10;100756.63;;;5.41;74.57
65329;BME280;51941;52.210;5.158;2024-02-26T12:54:38;100763.31;;;5.35;74.87
65329;BME280;51941;52.210;5.158;2024-02-26T12:57:08;100763.94;;;5.57;74.50
65329;BME280;51941;52.210;5.158;2024-02-26T12:59:36;100764.88;;;5.48;74.89
65329;BME280;51941;52.210;5.158;2024-02-26T13:02:04;100778.53;;;5.47;73.63